Time;durP1;ratioP1;P1;durP2;ratioP2;P2;SDS_P1;SDS_P2;PMS_P1;PMS_P2;Temp;Humidity;BMP_temperature;BMP_pressure;BME280_temperature;BME280_humidity;BME280_pressure;Samples;Min_cycle;Max_cycle;Signal;HPM_P1;HPM_P2
2023/12/10 00:00:39;;;;;;;;;;;;;;;;;;4981200;28;58394;-77
2023/12/10 00:03:04;;;;;;;;;;;;;;;;;;4981902;28;58458;-78
2023/12/10 00:05:29;;;;;;;;;;;;;;;;;;4980986;28;59987;-77
2023/12/10 00:07:54;;;;;;;;;;;;;;;;;;4984301;28;58395;-76
2023/12/10 00:10:19;;;;;;;;;;;;;;;;;;4983396;28;59505;-78
2023/12/10 00:12:44;;;;;;;;;;;;;;;;;;4983481;28;58787;-76
2023/12/10 00:15:10;;;;;;;;;;;;;;;;;;4983858;28;58474;-76
2023/12/10 00:17:35;;;;;;;;;;;;;;;;;;4984079;28;59102;-74
2023/12/10 00:20:00;;;;;;;;;;;;;;;;;;4984096;28;58476;-77
2023/12/10 00:22:25;;;;;;;;;;;;;;;;;;4984159;28;59277;-77
2023/12/10 00:24:50;;;;;;;;;;;;;;;;;;4983843;28;59040;-75
2023/12/10 00:27:15;;;;;;;;;;;;;;;;;;4985942;28;58383;-71
2023/12/10 00:29:40;;;;;;;;;;;;;;;;;;4983568;28;60512;-72
2023/12/10 00:32:06;;;;;;;;;;;;;;;;;;4981676;28;58452;-72
2023/12/10 00:34:31;;;;;;;;;;;;;;;;;;4983980;28;58511;-74
2023/12/10 00:36:56;;;;;;;;;;;;;;;;;;4983666;28;58856;-75
2023/12/10 00:39:21;;;;;;;;;;;;;;;;;;4984929;28;58832;-73
2023/12/10 00:41:46;;;;;;;;;;;;;;;;;;4983306;28;59362;-73
2023/12/10 00:44:11;;;;;;;;;;;;;;;;;;4984435;28;58717;-73
2023/12/10 00:46:36;;;;;;;;;;;;;;;;;;4983664;28;58589;-73
2023/12/10 00:49:02;;;;;;;;;;;;;;;;;;4985056;28;59768;-73
2023/12/10 00:51:28;;;;;;;;;;;;;;;;;;4983552;28;59045;-73
2023/12/10 00:53:53;;;;;;;;;;;;;;;;;;4982409;28;58281;-73
2023/12/10 00:56:18;;;;;;;;;;;;;;;;;;4983166;28;58440;-72
2023/12/10 00:58:43;;;;;;;;;;;;;;;;;;4982598;28;59090;-72
2023/12/10 01:01:08;;;;;;;;;;;;;;;;;;4982150;28;59444;-73
2023/12/10 01:03:33;;;;;;;;;;;;;;;;;;4983842;28;59280;-72
2023/12/10 01:05:58;;;;;;;;;;;;;;;;;;4983530;28;58531;-72
2023/12/10 01:08:23;;;;;;;;;;;;;;;;;;4984631;28;58958;-76
2023/12/10 01:10:48;;;;;;;;;;;;;;;;;;4982077;28;59918;-73
2023/12/10 01:13:13;;;;;;;;;;;;;;;;;;4982368;28;58382;-79
2023/12/10 01:15:39;;;;;;;;;;;;;;;;;;4983004;28;60105;-80
2023/12/10 01:18:04;;;;;;;;;;;;;;;;;;4984482;28;58451;-79
2023/12/10 01:20:30;;;;;;;;;;;;;;;;;;4981964;28;59653;-81
2023/12/10 01:22:55;;;;;;;;;;;;;;;;;;4981115;28;58771;-81
2023/12/10 01:25:20;;;;;;;;;;;;;;;;;;4985130;28;58370;-79
2023/12/10 01:27:45;;;;;;;;;;;;;;;;;;4984209;28;59794;-80
2023/12/10 01:30:10;;;;;;;;;;;;;;;;;;4982280;28;58707;-81
2023/12/10 01:32:35;;;;;;;;;;;;;;;;;;4982111;28;58442;-78
2023/12/10 01:35:00;;;;;;;;;;;;;;;;;;4984256;28;58518;-76
2023/12/10 01:37:25;;;;;;;;;;;;;;;;;;4982962;28;60825;-83
2023/12/10 01:39:50;;;;;;;;;;;;;;;;;;4983931;28;58370;-82
2023/12/10 01:42:17;;;;;;;;;;;;;;;;;;4981955;28;59196;-82
2023/12/10 01:44:42;;;;;;;;;;;;;;;;;;4982515;28;58351;-79
2023/12/10 01:47:07;;;;;;;;;;;;;;;;;;4983856;28;60108;-77
2023/12/10 01:49:32;;;;;;;;;;;;;;;;;;4981721;28;58819;-78
2023/12/10 01:51:57;;;;;;;;;;;;;;;;;;4983805;28;58624;-81
2023/12/10 01:54:22;;;;;;;;;;;;;;;;;;4982362;28;59316;-82
2023/12/10 01:56:47;;;;;;;;;;;;;;;;;;4982977;28;77589;-80
2023/12/10 01:59:12;;;;;;;;;;;;;;;;;;4983360;28;58625;-80
2023/12/10 02:01:37;;;;;;;;;;;;;;;;;;4981240;28;59340;-81
2023/12/10 02:04:05;;;;;;;;;;;;;;;;;;4982920;28;58311;-80
2023/12/10 02:06:30;;;;;;;;;;;;;;;;;;4983088;28;59352;-83
2023/12/10 02:08:55;;;;;;;;;;;;;;;;;;4983129;28;58439;-82
2023/12/10 02:11:20;;;;;;;;;;;;;;;;;;4981763;28;58586;-84
2023/12/10 02:13:45;;;;;;;;;;;;;;;;;;4983369;28;59349;-80
2023/12/10 02:16:12;;;;;;;;;;;;;;;;;;4981164;28;58892;-80
2023/12/10 02:18:37;;;;;;;;;;;;;;;;;;4982688;28;58332;-82
2023/12/10 02:21:02;;;;;;;;;;;;;;;;;;4979779;28;59484;-82
2023/12/10 02:23:27;;;;;;;;;;;;;;;;;;4982158;28;58817;-82
2023/12/10 02:25:52;;;;;;;;;;;;;;;;;;4983077;28;59466;-79
2023/12/10 02:28:22;;;;;;;;;;;;;;;;;;4982002;28;58886;-77
2023/12/10 02:30:47;;;;;;;;;;;;;;;;;;4981057;28;58461;-75
2023/12/10 02:33:12;;;;;;;;;;;;;;;;;;4982856;28;58388;-75
2023/12/10 02:35:37;;;;;;;;;;;;;;;;;;4982320;28;59219;-77
2023/12/10 02:38:04;;;;;;;;;;;;;;;;;;4981545;28;58457;-80
2023/12/10 02:40:29;;;;;;;;;;;;;;;;;;4980806;28;59377;-76
2023/12/10 02:42:54;;;;;;;;;;;;;;;;;;4982145;28;58717;-75
2023/12/10 02:45:19;;;;;;;;;;;;;;;;;;4983129;28;58672;-76
2023/12/10 02:47:44;;;;;;;;;;;;;;;;;;4982177;28;59859;-77
2023/12/10 02:50:09;;;;;;;;;;;;;;;;;;4978489;28;58453;-76
2023/12/10 02:52:36;;;;;;;;;;;;;;;;;;4984413;28;60423;-76
2023/12/10 02:55:01;;;;;;;;;;;;;;;;;;4984697;28;59085;-75
2023/12/10 02:57:26;;;;;;;;;;;;;;;;;;4985192;28;58587;-75
2023/12/10 02:59:51;;;;;;;;;;;;;;;;;;4985315;28;60186;-77
2023/12/10 03:02:16;;;;;;;;;;;;;;;;;;4985407;28;58807;-75
2023/12/10 03:04:41;;;;;;;;;;;;;;;;;;4985167;28;59338;-75
2023/12/10 03:07:06;;;;;;;;;;;;;;;;;;4985537;28;59400;-76
2023/12/10 03:09:31;;;;;;;;;;;;;;;;;;4985274;28;58442;-76
2023/12/10 03:11:56;;;;;;;;;;;;;;;;;;4983947;28;59735;-76
2023/12/10 03:14:21;;;;;;;;;;;;;;;;;;4983997;28;58965;-76
2023/12/10 03:16:46;;;;;;;;;;;;;;;;;;4982801;28;58547;-76
2023/12/10 03:19:11;;;;;;;;;;;;;;;;;;4985738;28;58433;-76
2023/12/10 03:21:36;;;;;;;;;;;;;;;;;;4981489;28;58874;-75
2023/12/10 03:24:02;;;;;;;;;;;;;;;;;;4983618;28;58513;-76
2023/12/10 03:26:27;;;;;;;;;;;;;;;;;;4983140;28;59704;-75
2023/12/10 03:28:52;;;;;;;;;;;;;;;;;;4984617;28;58779;-77
2023/12/10 03:31:17;;;;;;;;;;;;;;;;;;4985140;28;59793;-76
2023/12/10 03:33:42;;;;;;;;;;;;;;;;;;4983154;28;58964;-75
2023/12/10 03:36:07;;;;;;;;;;;;;;;;;;4982186;28;58438;-76
2023/12/10 03:38:32;;;;;;;;;;;;;;;;;;4983434;28;59363;-75
2023/12/10 03:40:57;;;;;;;;;;;;;;;;;;4980371;28;58504;-77
2023/12/10 03:43:22;;;;;;;;;;;;;;;;;;4983951;28;58413;-74
2023/12/10 03:45:47;;;;;;;;;;;;;;;;;;4984374;28;59785;-76
2023/12/10 03:48:12;;;;;;;;;;;;;;;;;;4984273;28;59744;-76
2023/12/10 03:50:37;;;;;;;;;;;;;;;;;;4982315;28;59337;-76
2023/12/10 03:53:03;;;;;;;;;;;;;;;;;;4982793;28;58921;-77
2023/12/10 03:55:28;;;;;;;;;;;;;;;;;;4983838;28;58276;-76
2023/12/10 03:57:53;;;;;;;;;;;;;;;;;;4987609;28;59364;-76
2023/12/10 04:00:18;;;;;;;;;;;;;;;;;;4986313;28;58757;-77
2023/12/10 04:02:43;;;;;;;;;;;;;;;;;;4987773;28;58450;-76
2023/12/10 04:05:11;;;;;;;;;;;;;;;;;;4987791;28;59199;-76
2023/12/10 04:07:36;;;;;;;;;;;;;;;;;;4985070;28;58982;-76
2023/12/10 04:10:02;;;;;;;;;;;;;;;;;;4986807;28;58446;-76
2023/12/10 04:12:27;;;;;;;;;;;;;;;;;;4982414;28;58889;-77
2023/12/10 04:14:52;;;;;;;;;;;;;;;;;;4985120;28;59758;-77
2023/12/10 04:17:17;;;;;;;;;;;;;;;;;;4984639;28;58463;-77
2023/12/10 04:19:42;;;;;;;;;;;;;;;;;;4984012;28;58887;-77
2023/12/10 04:22:07;;;;;;;;;;;;;;;;;;4984098;28;58399;-78
2023/12/10 04:24:32;;;;;;;;;;;;;;;;;;4982460;28;58637;-78
2023/12/10 04:26:57;;;;;;;;;;;;;;;;;;4984136;28;58499;-76
2023/12/10 04:29:22;;;;;;;;;;;;;;;;;;4984365;28;58610;-77
2023/12/10 04:31:47;;;;;;;;;;;;;;;;;;4981443;28;58494;-77
2023/12/10 04:34:12;;;;;;;;;;;;;;;;;;4983910;28;58314;-77
2023/12/10 04:36:38;;;;;;;;;;;;;;;;;;4984631;28;58966;-77
2023/12/10 04:39:03;;;;;;;;;;;;;;;;;;4982970;28;58878;-77
2023/12/10 04:41:28;;;;;;;;;;;;;;;;;;4983255;28;58448;-77
2023/12/10 04:43:53;;;;;;;;;;;;;;;;;;4983462;28;59598;-77
2023/12/10 04:46:18;;;;;;;;;;;;;;;;;;4984546;28;58901;-77
2023/12/10 04:48:43;;;;;;;;;;;;;;;;;;4983591;28;58451;-77
2023/12/10 04:51:09;;;;;;;;;;;;;;;;;;4981492;28;59361;-77
2023/12/10 04:53:34;;;;;;;;;;;;;;;;;;4983694;28;58920;-77
2023/12/10 04:55:59;;;;;;;;;;;;;;;;;;4984902;28;59454;-76
2023/12/10 04:58:24;;;;;;;;;;;;;;;;;;4983578;28;58712;-76
2023/12/10 05:00:49;;;;;;;;;;;;;;;;;;4982568;28;58446;-76
2023/12/10 05:03:14;;;;;;;;;;;;;;;;;;4984643;28;59456;-77
2023/12/10 05:05:39;;;;;;;;;;;;;;;;;;4983606;28;58375;-77
2023/12/10 05:08:04;;;;;;;;;;;;;;;;;;4984246;28;58275;-77
2023/12/10 05:10:29;;;;;;;;;;;;;;;;;;4982497;28;60431;-78
2023/12/10 05:12:54;;;;;;;;;;;;;;;;;;4983498;28;58923;-77
2023/12/10 05:15:19;;;;;;;;;;;;;;;;;;4983514;28;57895;-77
2023/12/10 05:17:44;;;;;;;;;;;;;;;;;;4982437;28;58374;-77
2023/12/10 05:20:10;;;;;;;;;;;;;;;;;;4982522;28;58153;-77
2023/12/10 05:22:35;;;;;;;;;;;;;;;;;;4983146;28;59408;-77
2023/12/10 05:25:00;;;;;;;;;;;;;;;;;;4982792;28;58435;-79
2023/12/10 05:27:25;;;;;;;;;;;;;;;;;;4983242;28;58676;-78
2023/12/10 05:29:50;;;;;;;;;;;;;;;;;;4982933;28;59170;-77
2023/12/10 05:32:15;;;;;;;;;;;;;;;;;;4981727;28;59809;-77
2023/12/10 05:34:40;;;;;;;;;;;;;;;;;;4983627;28;58428;-77
2023/12/10 05:37:05;;;;;;;;;;;;;;;;;;4982580;28;59667;-77
2023/12/10 05:39:30;;;;;;;;;;;;;;;;;;4982390;28;58805;-78
2023/12/10 05:41:55;;;;;;;;;;;;;;;;;;4982198;28;59474;-78
2023/12/10 05:44:21;;;;;;;;;;;;;;;;;;4980898;28;60094;-77
2023/12/10 05:46:46;;;;;;;;;;;;;;;;;;4981996;28;58694;-77
2023/12/10 05:49:11;;;;;;;;;;;;;;;;;;4984005;28;58563;-77
2023/12/10 05:51:36;;;;;;;;;;;;;;;;;;4981074;28;59802;-77
2023/12/10 05:54:01;;;;;;;;;;;;;;;;;;4982625;28;58410;-77
2023/12/10 05:56:26;;;;;;;;;;;;;;;;;;4981450;28;59512;-77
2023/12/10 05:58:51;;;;;;;;;;;;;;;;;;4983636;28;58427;-77
2023/12/10 06:01:16;;;;;;;;;;;;;;;;;;4982608;28;58592;-76
2023/12/10 06:03:41;;;;;;;;;;;;;;;;;;4981963;28;58259;-77
2023/12/10 06:06:07;;;;;;;;;;;;;;;;;;4981376;28;58371;-77
2023/12/10 06:08:32;;;;;;;;;;;;;;;;;;4981138;28;58905;-76
2023/12/10 06:10:57;;;;;;;;;;;;;;;;;;4980938;28;59083;-75
2023/12/10 06:13:22;;;;;;;;;;;;;;;;;;4983364;28;58435;-76
2023/12/10 06:15:47;;;;;;;;;;;;;;;;;;4980626;28;63227;-76
2023/12/10 06:18:12;;;;;;;;;;;;;;;;;;4982922;28;60178;-75
2023/12/10 06:20:37;;;;;;;;;;;;;;;;;;4982042;28;59673;-76
2023/12/10 06:23:02;;;;;;;;;;;;;;;;;;4981028;28;59983;-76
2023/12/10 06:25:27;;;;;;;;;;;;;;;;;;4981525;28;58378;-76
2023/12/10 06:27:54;;;;;;;;;;;;;;;;;;4983245;28;58978;-76
2023/12/10 06:30:19;;;;;;;;;;;;;;;;;;4978081;28;59016;-77
2023/12/10 06:32:44;;;;;;;;;;;;;;;;;;4980701;28;58423;-78
2023/12/10 06:35:09;;;;;;;;;;;;;;;;;;4983204;28;60079;-76
2023/12/10 06:37:37;;;;;;;;;;;;;;;;;;4981495;28;59629;-77
2023/12/10 06:40:02;;;;;;;;;;;;;;;;;;4982671;28;58332;-76
2023/12/10 06:42:27;;;;;;;;;;;;;;;;;;4979410;28;58989;-76
2023/12/10 06:44:52;;;;;;;;;;;;;;;;;;4980260;28;58359;-76
2023/12/10 06:47:18;;;;;;;;;;;;;;;;;;4982670;28;58749;-76
2023/12/10 06:49:43;;;;;;;;;;;;;;;;;;4981080;28;59344;-75
2023/12/10 06:52:08;;;;;;;;;;;;;;;;;;4974824;28;58621;-76
2023/12/10 06:54:33;;;;;;;;;;;;;;;;;;4978948;28;60549;-76
2023/12/10 06:56:58;;;;;;;;;;;;;;;;;;4980756;28;58475;-75
2023/12/10 06:59:23;;;;;;;;;;;;;;;;;;4982489;28;58335;-76
2023/12/10 07:01:48;;;;;;;;;;;;;;;;;;4980980;28;59324;-76
2023/12/10 07:04:13;;;;;;;;;;;;;;;;;;4982314;28;58129;-78
2023/12/10 07:06:39;;;;;;;;;;;;;;;;;;4981964;28;59470;-76
2023/12/10 07:09:06;;;;;;;;;;;;;;;;;;4979463;28;58800;-76
2023/12/10 07:11:31;;;;;;;;;;;;;;;;;;4981917;28;58512;-78
2023/12/10 07:13:56;;;;;;;;;;;;;;;;;;4980611;28;59247;-78
2023/12/10 07:16:21;;;;;;;;;;;;;;;;;;4980844;28;60160;-77
2023/12/10 07:18:47;;;;;;;;;;;;;;;;;;4979943;28;58455;-77
2023/12/10 07:21:12;;;;;;;;;;;;;;;;;;4981129;28;59235;-76
2023/12/10 07:23:37;;;;;;;;;;;;;;;;;;4980525;28;58482;-76
2023/12/10 07:26:02;;;;;;;;;;;;;;;;;;4982434;28;59384;-76
2023/12/10 07:28:27;;;;;;;;;;;;;;;;;;4981501;28;58598;-77
2023/12/10 07:30:52;;;;;;;;;;;;;;;;;;4981554;28;58538;-77
2023/12/10 07:33:17;;;;;;;;;;;;;;;;;;4983187;28;59380;-77
2023/12/10 07:35:42;;;;;;;;;;;;;;;;;;4978949;28;58880;-77
2023/12/10 07:38:07;;;;;;;;;;;;;;;;;;4983618;28;58137;-76
2023/12/10 07:40:32;;;;;;;;;;;;;;;;;;4980364;28;58543;-78
2023/12/10 07:42:58;;;;;;;;;;;;;;;;;;4983863;28;58848;-77
2023/12/10 07:45:23;;;;;;;;;;;;;;;;;;4982748;28;59499;-77
2023/12/10 07:47:48;;;;;;;;;;;;;;;;;;4982974;28;58768;-77
2023/12/10 07:50:13;;;;;;;;;;;;;;;;;;4983265;28;58394;-76
2023/12/10 07:52:38;;;;;;;;;;;;;;;;;;4980553;28;59893;-77
2023/12/10 07:55:03;;;;;;;;;;;;;;;;;;4983669;28;58855;-78
2023/12/10 07:57:28;;;;;;;;;;;;;;;;;;4984911;28;63870;-77
2023/12/10 07:59:53;;;;;;;;;;;;;;;;;;4983079;28;58904;-77
2023/12/10 08:02:18;;;;;;;;;;;;;;;;;;4983859;28;59056;-77
2023/12/10 08:04:44;;;;;;;;;;;;;;;;;;4985808;28;58375;-77
2023/12/10 08:07:09;;;;;;;;;;;;;;;;;;4984485;28;60604;-77
2023/12/10 08:09:34;;;;;;;;;;;;;;;;;;4984647;28;58384;-77
2023/12/10 08:11:59;;;;;;;;;;;;;;;;;;4983612;28;59353;-77
2023/12/10 08:14:26;;;;;;;;;;;;;;;;;;4982266;28;58857;-77
2023/12/10 08:16:51;;;;;;;;;;;;;;;;;;4983909;28;58371;-76
2023/12/10 08:19:16;;;;;;;;;;;;;;;;;;4984273;28;58885;-77
2023/12/10 08:21:41;;;;;;;;;;;;;;;;;;4981454;28;58771;-77
2023/12/10 08:24:06;;;;;;;;;;;;;;;;;;4981504;28;58391;-76
2023/12/10 08:26:31;;;;;;;;;;;;;;;;;;4985584;28;59272;-75
2023/12/10 08:28:56;;;;;;;;;;;;;;;;;;4984463;28;58850;-78
2023/12/10 08:31:21;;;;;;;;;;;;;;;;;;4984803;28;59659;-74
2023/12/10 08:33:47;;;;;;;;;;;;;;;;;;4982311;28;59054;-77
2023/12/10 08:36:12;;;;;;;;;;;;;;;;;;4984256;28;58375;-75
2023/12/10 08:38:37;;;;;;;;;;;;;;;;;;4979818;28;59731;-75
2023/12/10 08:41:02;;;;;;;;;;;;;;;;;;4981782;28;58518;-76
2023/12/10 08:43:27;;;;;;;;;;;;;;;;;;4983188;28;58402;-78
2023/12/10 08:45:54;;;;;;;;;;;;;;;;;;4983922;28;59649;-76
2023/12/10 08:48:19;;;;;;;;;;;;;;;;;;4985613;28;59034;-75
2023/12/10 08:50:44;;;;;;;;;;;;;;;;;;4982015;28;59759;-79
2023/12/10 08:53:09;;;;;;;;;;;;;;;;;;4983207;28;59341;-77
2023/12/10 08:55:34;;;;;;;;;;;;;;;;;;4985059;28;58388;-78
2023/12/10 08:57:59;;;;;;;;;;;;;;;;;;4984998;28;58425;-79
2023/12/10 09:00:25;;;;;;;;;;;;;;;;;;4984035;28;58936;-78
2023/12/10 09:02:50;;;;;;;;;;;;;;;;;;4985527;28;58869;-78
2023/12/10 09:05:15;;;;;;;;;;;;;;;;;;4984620;28;58367;-79
2023/12/10 09:07:40;;;;;;;;;;;;;;;;;;4984655;28;58443;-76
2023/12/10 09:10:05;;;;;;;;;;;;;;;;;;4985299;28;58460;-76
2023/12/10 09:12:30;;;;;;;;;;;;;;;;;;4983837;28;58788;-75
2023/12/10 09:14:55;;;;;;;;;;;;;;;;;;4982078;28;58456;-75
2023/12/10 09:17:20;;;;;;;;;;;;;;;;;;4984675;28;58589;-75
2023/12/10 09:19:45;;;;;;;;;;;;;;;;;;4980349;28;58580;-78
2023/12/10 09:22:10;;;;;;;;;;;;;;;;;;4981839;28;58340;-76
2023/12/10 09:24:35;;;;;;;;;;;;;;;;;;4982995;28;59697;-76
2023/12/10 09:27:00;;;;;;;;;;;;;;;;;;4981871;28;59620;-76
2023/12/10 09:29:26;;;;;;;;;;;;;;;;;;4983491;28;58594;-76
2023/12/10 09:31:51;;;;;;;;;;;;;;;;;;4983297;28;59258;-76
2023/12/10 09:34:16;;;;;;;;;;;;;;;;;;4983644;28;57833;-76
2023/12/10 09:36:41;;;;;;;;;;;;;;;;;;4983620;28;59566;-78
2023/12/10 09:39:07;;;;;;;;;;;;;;;;;;4980972;28;58919;-78
2023/12/10 09:41:32;;;;;;;;;;;;;;;;;;4981854;28;58495;-78
2023/12/10 09:43:57;;;;;;;;;;;;;;;;;;4982439;28;60210;-78
2023/12/10 09:46:22;;;;;;;;;;;;;;;;;;4982822;28;58830;-78
2023/12/10 09:48:47;;;;;;;;;;;;;;;;;;4982115;28;58576;-79
2023/12/10 09:51:12;;;;;;;;;;;;;;;;;;4982724;28;58571;-78
2023/12/10 09:53:37;;;;;;;;;;;;;;;;;;4982285;28;58324;-78
2023/12/10 09:56:02;;;;;;;;;;;;;;;;;;4984321;28;58560;-79
2023/12/10 09:58:28;;;;;;;;;;;;;;;;;;4982975;28;58764;-79
2023/12/10 10:00:53;;;;;;;;;;;;;;;;;;4982491;28;58436;-78
2023/12/10 10:03:19;;;;;;;;;;;;;;;;;;4982677;28;60318;-79
2023/12/10 10:05:44;;;;;;;;;;;;;;;;;;4981179;28;59041;-78
2023/12/10 10:08:09;;;;;;;;;;;;;;;;;;4983969;28;58760;-79
2023/12/10 10:10:34;;;;;;;;;;;;;;;;;;4982600;28;59729;-79
2023/12/10 10:12:59;;;;;;;;;;;;;;;;;;4982322;28;58778;-79
2023/12/10 10:15:25;;;;;;;;;;;;;;;;;;4981420;28;59301;-78
2023/12/10 10:17:50;;;;;;;;;;;;;;;;;;4983085;28;59024;-79
2023/12/10 10:20:16;;;;;;;;;;;;;;;;;;4982847;28;58422;-79
2023/12/10 10:22:41;;;;;;;;;;;;;;;;;;4981541;28;59322;-78
2023/12/10 10:25:06;;;;;;;;;;;;;;;;;;4981090;28;58837;-79
2023/12/10 10:27:33;;;;;;;;;;;;;;;;;;4983569;28;58747;-78
2023/12/10 10:29:58;;;;;;;;;;;;;;;;;;4979573;28;59510;-78
2023/12/10 10:32:23;;;;;;;;;;;;;;;;;;4981881;28;59000;-78
2023/12/10 10:34:49;;;;;;;;;;;;;;;;;;4984289;28;57883;-78
2023/12/10 10:37:15;;;;;;;;;;;;;;;;;;4982894;28;58813;-78
2023/12/10 10:39:41;;;;;;;;;;;;;;;;;;4980954;28;58249;-78
2023/12/10 10:42:08;;;;;;;;;;;;;;;;;;4981423;28;59669;-78
2023/12/10 10:44:33;;;;;;;;;;;;;;;;;;4978072;28;58902;-78
2023/12/10 10:46:58;;;;;;;;;;;;;;;;;;4980468;28;58411;-76
2023/12/10 10:49:23;;;;;;;;;;;;;;;;;;4983675;28;59676;-76
2023/12/10 10:51:49;;;;;;;;;;;;;;;;;;4979618;28;58653;-76
2023/12/10 10:54:14;;;;;;;;;;;;;;;;;;4982663;28;58450;-76
2023/12/10 10:56:39;;;;;;;;;;;;;;;;;;4981336;28;58438;-76
2023/12/10 10:59:04;;;;;;;;;;;;;;;;;;4979843;28;58479;-78
2023/12/10 11:01:29;;;;;;;;;;;;;;;;;;4981464;28;58873;-75
2023/12/10 11:03:54;;;;;;;;;;;;;;;;;;4981548;28;58949;-76
2023/12/10 11:06:19;;;;;;;;;;;;;;;;;;4981380;28;58374;-76
2023/12/10 11:08:44;;;;;;;;;;;;;;;;;;4982898;28;59302;-76
2023/12/10 11:11:09;;;;;;;;;;;;;;;;;;4980489;28;58568;-76
2023/12/10 11:13:34;;;;;;;;;;;;;;;;;;4983963;28;58407;-76
2023/12/10 11:16:00;;;;;;;;;;;;;;;;;;4985889;28;59445;-76
2023/12/10 11:18:25;;;;;;;;;;;;;;;;;;4986524;28;59122;-77
2023/12/10 11:20:50;;;;;;;;;;;;;;;;;;4984656;28;59625;-76
2023/12/10 11:23:15;;;;;;;;;;;;;;;;;;4984980;28;59000;-76
2023/12/10 11:25:40;;;;;;;;;;;;;;;;;;4984383;28;58595;-76
2023/12/10 11:28:05;;;;;;;;;;;;;;;;;;4986528;28;59473;-76
2023/12/10 11:30:30;;;;;;;;;;;;;;;;;;4983880;28;60195;-77
2023/12/10 11:32:55;;;;;;;;;;;;;;;;;;4984688;28;58502;-77
2023/12/10 11:35:20;;;;;;;;;;;;;;;;;;4984737;28;58716;-76
2023/12/10 11:37:45;;;;;;;;;;;;;;;;;;4986481;28;58121;-76
2023/12/10 11:40:10;;;;;;;;;;;;;;;;;;4984202;28;59385;-76
2023/12/10 11:42:35;;;;;;;;;;;;;;;;;;4984330;28;58466;-77
2023/12/10 11:45:01;;;;;;;;;;;;;;;;;;4983734;28;57795;-77
2023/12/10 11:47:26;;;;;;;;;;;;;;;;;;4984578;28;59351;-77
2023/12/10 11:49:51;;;;;;;;;;;;;;;;;;4983373;28;58914;-76
2023/12/10 11:52:16;;;;;;;;;;;;;;;;;;4985614;28;58406;-76
2023/12/10 11:54:41;;;;;;;;;;;;;;;;;;4980713;28;59670;-76
2023/12/10 11:57:06;;;;;;;;;;;;;;;;;;4984560;28;58516;-76
2023/12/10 11:59:31;;;;;;;;;;;;;;;;;;4985713;28;58455;-76
2023/12/10 12:01:56;;;;;;;;;;;;;;;;;;4982638;28;58660;-76
2023/12/10 12:04:21;;;;;;;;;;;;;;;;;;4986021;28;58521;-77
2023/12/10 12:06:46;;;;;;;;;;;;;;;;;;4983949;28;59498;-78
2023/12/10 12:09:11;;;;;;;;;;;;;;;;;;4984063;28;58964;-79
2023/12/10 12:11:36;;;;;;;;;;;;;;;;;;4983734;28;58743;-79
2023/12/10 12:14:02;;;;;;;;;;;;;;;;;;4983991;28;60281;-79
2023/12/10 12:16:27;;;;;;;;;;;;;;;;;;4981960;28;58856;-76
2023/12/10 12:18:52;;;;;;;;;;;;;;;;;;4984987;28;58390;-76
2023/12/10 12:21:17;;;;;;;;;;;;;;;;;;4980617;28;59395;-77
2023/12/10 12:23:44;;;;;;;;;;;;;;;;;;4981249;28;58295;-77
2023/12/10 12:26:09;;;;;;;;;;;;;;;;;;4983901;28;59211;-76
2023/12/10 12:28:34;;;;;;;;;;;;;;;;;;4983625;28;58922;-78
2023/12/10 12:30:59;;;;;;;;;;;;;;;;;;4983929;28;58499;-76
2023/12/10 12:33:24;;;;;;;;;;;;;;;;;;4984690;28;59725;-76
2023/12/10 12:35:49;;;;;;;;;;;;;;;;;;4981619;28;58891;-76
2023/12/10 12:38:14;;;;;;;;;;;;;;;;;;4982913;28;58486;-76
2023/12/10 12:40:39;;;;;;;;;;;;;;;;;;4984033;28;59657;-76
2023/12/10 12:43:04;;;;;;;;;;;;;;;;;;4983472;28;59301;-76
2023/12/10 12:45:29;;;;;;;;;;;;;;;;;;4983521;28;59398;-74
2023/12/10 12:47:55;;;;;;;;;;;;;;;;;;4983171;28;59017;-75
2023/12/10 12:50:20;;;;;;;;;;;;;;;;;;4982965;28;58343;-74
2023/12/10 12:52:46;;;;;;;;;;;;;;;;;;4983629;28;59305;-82
2023/12/10 12:55:11;;;;;;;;;;;;;;;;;;4980920;28;59054;-73
2023/12/10 12:57:36;;;;;;;;;;;;;;;;;;4981959;28;58491;-74
2023/12/10 13:00:01;;;;;;;;;;;;;;;;;;4983076;28;58957;-81
2023/12/10 13:02:26;;;;;;;;;;;;;;;;;;4981506;28;59375;-74
2023/12/10 13:04:51;;;;;;;;;;;;;;;;;;4981666;28;58355;-74
2023/12/10 13:07:16;;;;;;;;;;;;;;;;;;4984195;28;58872;-75
2023/12/10 13:09:41;;;;;;;;;;;;;;;;;;4980804;28;58060;-73
2023/12/10 13:12:09;;;;;;;;;;;;;;;;;;4981459;28;58513;-74
2023/12/10 13:14:34;;;;;;;;;;;;;;;;;;4979892;28;58901;-75
2023/12/10 13:17:00;;;;;;;;;;;;;;;;;;4981848;28;58687;-79
2023/12/10 13:19:25;;;;;;;;;;;;;;;;;;4981636;28;59616;-77
2023/12/10 13:21:51;;;;;;;;;;;;;;;;;;4980400;28;58789;-79
2023/12/10 13:24:16;;;;;;;;;;;;;;;;;;4982171;28;58422;-78
2023/12/10 13:26:42;;;;;;;;;;;;;;;;;;4982037;28;59566;-79
2023/12/10 13:29:07;;;;;;;;;;;;;;;;;;4983430;28;58450;-78
2023/12/10 13:31:32;;;;;;;;;;;;;;;;;;4980541;28;59747;-78
2023/12/10 13:33:57;;;;;;;;;;;;;;;;;;4994539;28;58885;-79
2023/12/10 13:36:22;;;;;;;;;;;;;;;;;;4980611;28;58410;-76
2023/12/10 13:38:47;;;;;;;;;;;;;;;;;;4980442;28;58861;-76
2023/12/10 13:41:12;;;;;;;;;;;;;;;;;;4980141;28;58270;-76
2023/12/10 13:43:37;;;;;;;;;;;;;;;;;;4981153;28;58426;-76
2023/12/10 13:46:02;;;;;;;;;;;;;;;;;;4980095;28;58710;-76
2023/12/10 13:48:28;;;;;;;;;;;;;;;;;;4982362;28;58640;-77
2023/12/10 13:50:53;;;;;;;;;;;;;;;;;;4980148;28;60245;-80
2023/12/10 13:53:18;;;;;;;;;;;;;;;;;;4982224;28;58964;-79
2023/12/10 13:55:43;;;;;;;;;;;;;;;;;;4981982;28;58371;-79
2023/12/10 13:58:08;;;;;;;;;;;;;;;;;;4983892;28;59815;-78
2023/12/10 14:00:33;;;;;;;;;;;;;;;;;;4979370;28;59845;-78
2023/12/10 14:02:58;;;;;;;;;;;;;;;;;;4981900;28;58838;-79
2023/12/10 14:05:23;;;;;;;;;;;;;;;;;;4982116;28;59403;-79
2023/12/10 14:07:48;;;;;;;;;;;;;;;;;;4981174;28;58825;-76
2023/12/10 14:10:13;;;;;;;;;;;;;;;;;;4983896;28;59579;-78
2023/12/10 14:12:38;;;;;;;;;;;;;;;;;;4981210;28;58820;-75
2023/12/10 14:15:04;;;;;;;;;;;;;;;;;;4983185;28;58531;-73
2023/12/10 14:17:29;;;;;;;;;;;;;;;;;;4982799;28;59518;-74
2023/12/10 14:19:54;;;;;;;;;;;;;;;;;;4981935;28;58709;-73
2023/12/10 14:22:19;;;;;;;;;;;;;;;;;;4982298;28;58307;-77
2023/12/10 14:24:44;;;;;;;;;;;;;;;;;;4980104;28;59426;-78
2023/12/10 14:27:10;;;;;;;;;;;;;;;;;;4981344;28;58524;-73
2023/12/10 14:29:35;;;;;;;;;;;;;;;;;;4981859;28;58493;-75
2023/12/10 14:32:00;;;;;;;;;;;;;;;;;;4979197;28;59849;-79
2023/12/10 14:34:25;;;;;;;;;;;;;;;;;;4981227;28;58422;-72
2023/12/10 14:36:50;;;;;;;;;;;;;;;;;;4979830;28;60238;-72
2023/12/10 14:39:15;;;;;;;;;;;;;;;;;;4982483;28;58843;-79
2023/12/10 14:41:40;;;;;;;;;;;;;;;;;;4980114;28;58538;-72
2023/12/10 14:44:06;;;;;;;;;;;;;;;;;;4981495;28;58818;-72
2023/12/10 14:46:32;;;;;;;;;;;;;;;;;;4981406;28;58833;-72
2023/12/10 14:48:57;;;;;;;;;;;;;;;;;;4981774;28;58415;-73
2023/12/10 14:51:22;;;;;;;;;;;;;;;;;;4982525;28;58452;-72
2023/12/10 14:53:47;;;;;;;;;;;;;;;;;;4983333;28;58267;-79
2023/12/10 14:56:13;;;;;;;;;;;;;;;;;;4982145;28;60436;-73
2023/12/10 14:58:38;;;;;;;;;;;;;;;;;;4982309;28;59732;-81
2023/12/10 15:01:03;;;;;;;;;;;;;;;;;;4984520;28;58576;-73
2023/12/10 15:03:28;;;;;;;;;;;;;;;;;;4982286;28;59441;-73
2023/12/10 15:05:53;;;;;;;;;;;;;;;;;;4980741;28;59941;-73
2023/12/10 15:08:18;;;;;;;;;;;;;;;;;;4982246;28;58371;-73
2023/12/10 15:10:44;;;;;;;;;;;;;;;;;;4981464;28;59459;-74
2023/12/10 15:13:09;;;;;;;;;;;;;;;;;;4983744;28;59632;-73
2023/12/10 15:15:34;;;;;;;;;;;;;;;;;;4982966;28;60339;-73
2023/12/10 15:17:59;;;;;;;;;;;;;;;;;;4981935;28;59845;-75
2023/12/10 15:20:24;;;;;;;;;;;;;;;;;;4981167;28;58189;-74
2023/12/10 15:22:49;;;;;;;;;;;;;;;;;;4980974;28;59542;-74
2023/12/10 15:25:14;;;;;;;;;;;;;;;;;;4980878;28;58890;-74
2023/12/10 15:27:40;;;;;;;;;;;;;;;;;;4981775;28;58372;-74
2023/12/10 15:30:05;;;;;;;;;;;;;;;;;;4981398;28;59357;-74
2023/12/10 15:32:31;;;;;;;;;;;;;;;;;;4977811;28;58740;-74
2023/12/10 15:34:57;;;;;;;;;;;;;;;;;;4980018;28;59217;-73
2023/12/10 15:37:22;;;;;;;;;;;;;;;;;;4982250;28;59183;-74
2023/12/10 15:39:47;;;;;;;;;;;;;;;;;;4979841;28;58385;-74
2023/12/10 15:42:13;;;;;;;;;;;;;;;;;;4980268;28;59619;-76
2023/12/10 15:44:38;;;;;;;;;;;;;;;;;;4979761;28;58967;-75
2023/12/10 15:47:03;;;;;;;;;;;;;;;;;;4980093;28;58730;-75
2023/12/10 15:49:30;;;;;;;;;;;;;;;;;;4981853;28;60360;-76
2023/12/10 15:51:55;;;;;;;;;;;;;;;;;;4978352;28;58905;-77
2023/12/10 15:54:20;;;;;;;;;;;;;;;;;;4981443;28;57941;-76
2023/12/10 15:56:46;;;;;;;;;;;;;;;;;;4979983;28;58960;-75
2023/12/10 15:59:11;;;;;;;;;;;;;;;;;;4979722;28;58390;-73
2023/12/10 16:01:36;;;;;;;;;;;;;;;;;;4981763;28;59744;-74
2023/12/10 16:04:02;;;;;;;;;;;;;;;;;;4986810;28;59238;-74
2023/12/10 16:06:27;;;;;;;;;;;;;;;;;;4982138;28;58454;-73
2023/12/10 16:08:53;;;;;;;;;;;;;;;;;;4982229;28;59995;-73
2023/12/10 16:11:18;;;;;;;;;;;;;;;;;;4981820;28;58895;-72
2023/12/10 16:13:43;;;;;;;;;;;;;;;;;;4981868;28;58686;-72
2023/12/10 16:16:08;;;;;;;;;;;;;;;;;;4984633;28;59711;-78
2023/12/10 16:18:33;;;;;;;;;;;;;;;;;;4984607;28;58402;-80
2023/12/10 16:20:58;;;;;;;;;;;;;;;;;;4984640;28;60246;-80
2023/12/10 16:23:23;;;;;;;;;;;;;;;;;;4984263;28;58831;-80
2023/12/10 16:25:48;;;;;;;;;;;;;;;;;;4985425;28;58541;-73
2023/12/10 16:28:13;;;;;;;;;;;;;;;;;;4984540;28;60666;-74
2023/12/10 16:30:38;;;;;;;;;;;;;;;;;;4981148;28;59730;-73